Unalaska Airport Unalaska US
ICAO: PADU
IATA:
Category: Medium
Scheduled Services:

Elevation: 22 ft
TransAlt. 18000 ft.

Airport Communications:
AWOS 3:125.8
ANCHORAGE CNTR:121.4
CTAF:122.6
COLD BAY RDO:122.6
DUTCH WX:129.5

PADU Zoom In..

If you have problems with the map follow the link
https://www.worldairports.se/pages/airport.php?
ICAO=PADU

Runways:

(A) RW 12 length 4100 ft width 100 ft
---- / hdg 122

(B) RW 30 length 4100 ft width 100 ft
---- / hdg 302

Location; PADU
Day. 18 / Time. 10.56 Zulu
* Altimeter: 29.36
* Temperature: 02° c. 35.6°f.
* Wind from: 070° Speed 06 kn.
Dewpoint: -03° c.
Visibility: 10 Statute Miles.
Clouds: Few 3400 ft.

PADU 181056Z AUTO 07006KT 10SM FEW034 02/M03 A2936 RMK AO2 SLP946 T00171028 FZRANO


Wind From 070°
Speed 06 kn.

 
 
jpsmedia worldairports.se 2020   terms of use